createdAt,value
2019-04-20T00:01:32.316Z,85.60
2019-04-20T00:04:01.519Z,86.00
2019-04-20T00:06:42.948Z,86.70
2019-04-20T00:09:12.229Z,87.20
2019-04-20T00:11:50.767Z,87.40
2019-04-20T00:14:16.202Z,88.30
2019-04-20T00:16:44.456Z,89.20
2019-04-20T00:19:22.531Z,89.50
2019-04-20T00:21:58.565Z,89.90
2019-04-20T00:24:33.274Z,89.60
2019-04-20T00:27:21.697Z,90.00
2019-04-20T00:29:51.064Z,89.10
2019-04-20T00:32:14.657Z,89.30
2019-04-20T00:34:40.231Z,89.20
2019-04-20T00:37:10.820Z,89.20
2019-04-20T00:39:42.736Z,89.30
2019-04-20T00:42:16.213Z,89.60
2019-04-20T00:45:00.027Z,90.00
2019-04-20T00:47:30.910Z,90.10
2019-04-20T00:50:08.099Z,90.50
2019-04-20T00:52:41.192Z,90.60
2019-04-20T00:55:00.453Z,90.80
2019-04-20T01:08:59.270Z,91.50
2019-04-20T01:11:38.413Z,91.60
2019-04-20T01:14:10.887Z,91.70
2019-04-20T01:16:47.424Z,91.90
2019-04-20T01:19:15.920Z,92.60
2019-04-20T01:21:54.829Z,92.40
2019-04-20T01:24:24.804Z,92.70
2019-04-20T01:26:55.959Z,92.90
2019-04-20T01:29:34.765Z,93.00
2019-04-20T01:32:10.516Z,93.10
2019-04-20T01:34:42.694Z,93.30
2019-04-20T01:37:19.519Z,93.50
2019-04-20T01:39:39.926Z,93.70
2019-04-20T01:42:08.897Z,93.90
2019-04-20T01:44:44.077Z,94.00
2019-04-20T01:47:13.420Z,94.10
2019-04-20T01:56:01.462Z,94.40
2019-04-20T01:58:30.339Z,94.50
2019-04-20T02:01:09.710Z,94.50
2019-04-20T02:03:56.859Z,94.70
2019-04-20T02:06:28.542Z,94.80
2019-04-20T02:09:06.743Z,94.70
2019-04-20T02:11:38.406Z,95.10
2019-04-20T02:14:09.953Z,95.60
2019-04-20T02:27:25.887Z,95.50
2019-04-20T02:30:22.073Z,95.10
2019-04-20T02:33:13.973Z,95.00
2019-04-20T02:36:10.368Z,95.00
2019-04-20T02:42:01.740Z,94.70
2019-04-20T02:44:27.911Z,94.80
2019-04-20T02:47:02.233Z,95.00
2019-04-20T02:49:34.119Z,95.00
2019-04-20T02:51:59.719Z,95.20
2019-04-20T02:54:26.107Z,95.40
2019-04-20T02:59:55.779Z,95.60
2019-04-20T03:01:57.633Z,95.80
2019-04-20T03:04:20.271Z,95.90
2019-04-20T03:06:58.349Z,95.70
2019-04-20T03:09:36.186Z,95.50
2019-04-20T03:12:08.047Z,95.40
2019-04-20T03:14:35.218Z,95.50
2019-04-20T03:17:25.716Z,95.50
2019-04-20T03:19:44.618Z,95.50
2019-04-20T03:22:33.749Z,95.50
2019-04-20T03:24:59.567Z,95.50
2019-04-20T03:27:38.137Z,95.70
2019-04-20T03:33:33.173Z,95.60
2019-04-20T03:35:43.150Z,95.60
2019-04-20T03:38:10.678Z,95.70
2019-04-20T03:40:37.460Z,95.70
2019-04-20T03:42:57.025Z,95.60
2019-04-20T03:45:35.027Z,95.80
2019-04-20T03:48:09.126Z,96.10
2019-04-20T03:50:56.628Z,96.20
2019-04-20T03:53:30.844Z,96.20
2019-04-20T03:56:19.721Z,96.20
2019-04-20T03:58:55.215Z,96.40
2019-04-20T04:02:02.086Z,96.90
2019-04-20T04:04:14.905Z,97.00
2019-04-20T04:06:47.923Z,97.20
2019-04-20T04:09:25.906Z,97.60
2019-04-20T04:12:04.029Z,97.70
2019-04-20T04:14:21.976Z,97.60
2019-04-20T04:16:56.995Z,97.50
2019-04-20T04:19:31.650Z,97.60
2019-04-20T04:22:08.923Z,97.60
2019-04-20T04:24:39.435Z,97.60
2019-04-20T04:27:23.885Z,97.90
2019-04-20T04:29:51.240Z,97.90
2019-04-20T04:32:50.048Z,97.80
2019-04-20T04:34:59.030Z,97.90
2019-04-20T04:37:35.690Z,98.40
2019-04-20T04:40:16.526Z,98.70
2019-04-20T04:42:41.879Z,98.70
2019-04-20T04:45:01.621Z,99.00
2019-04-20T04:47:30.396Z,99.20
2019-04-20T04:50:09.540Z,99.50
2019-04-20T04:52:47.835Z,99.50
2019-04-20T04:55:18.787Z,99.40
2019-04-20T04:57:41.246Z,99.40
2019-04-20T05:00:20.058Z,99.50
2019-04-20T05:02:52.757Z,99.50
2019-04-20T05:06:03.496Z,99.50
2019-04-20T05:08:24.995Z,99.60
2019-04-20T05:10:47.932Z,99.70
2019-04-20T05:13:19.930Z,99.80
2019-04-20T05:16:05.205Z,99.90
2019-04-20T05:18:47.875Z,99.90
2019-04-20T05:21:25.510Z,99.90
2019-04-20T05:27:06.017Z,99.90
2019-04-20T05:29:17.982Z,99.90
2019-04-20T05:31:51.840Z,99.90
2019-04-20T05:34:38.663Z,99.90
2019-04-20T05:37:17.636Z,99.90
2019-04-20T05:39:44.727Z,99.90
2019-04-20T05:42:18.905Z,99.90
2019-04-20T05:44:52.795Z,99.90
2019-04-20T05:47:21.713Z,99.90
2019-04-20T05:49:56.175Z,99.90
2019-04-20T05:52:43.826Z,99.90
2019-04-20T05:55:04.372Z,99.90
2019-04-20T05:57:42.731Z,99.90
2019-04-20T06:00:13.650Z,99.70
2019-04-20T06:02:44.093Z,99.20
2019-04-20T06:05:16.036Z,98.60
2019-04-20T06:07:48.697Z,98.00
2019-04-20T06:10:32.528Z,97.00
2019-04-20T06:15:59.818Z,96.40
2019-04-20T06:18:35.418Z,95.70
2019-04-20T06:21:20.115Z,95.80
2019-04-20T06:24:08.803Z,97.70
2019-04-20T06:26:54.133Z,98.30
2019-04-20T06:29:20.490Z,98.90
2019-04-20T06:31:51.829Z,99.60
2019-04-20T06:37:06.799Z,99.90
2019-04-20T06:47:39.443Z,99.90
2019-04-20T06:50:12.865Z,99.90
2019-04-20T06:53:01.938Z,99.90
2019-04-20T06:55:38.128Z,99.90
2019-04-20T06:58:22.087Z,99.90
2019-04-20T07:00:38.358Z,99.90
2019-04-20T07:03:18.423Z,99.90
2019-04-20T07:05:39.077Z,99.90
2019-04-20T07:08:37.393Z,99.90
2019-04-20T07:10:51.735Z,99.90
2019-04-20T07:13:11.808Z,99.90
2019-04-20T07:15:57.168Z,99.90
2019-04-20T07:18:35.297Z,99.80
2019-04-20T07:21:23.487Z,99.30
2019-04-20T07:23:55.872Z,98.90
2019-04-20T07:26:29.083Z,99.30
2019-04-20T07:29:05.055Z,98.80
2019-04-20T07:31:27.757Z,98.90
2019-04-20T07:34:04.725Z,98.80
2019-04-20T07:37:07.052Z,98.10
2019-04-20T07:39:10.371Z,97.90
2019-04-20T07:41:50.549Z,98.10
2019-04-20T07:44:13.145Z,97.70
2019-04-20T07:46:57.814Z,98.10
2019-04-20T07:49:12.854Z,97.20
2019-04-20T07:51:32.328Z,96.30
2019-04-20T07:54:24.512Z,96.50
2019-04-20T07:56:56.248Z,96.40
2019-04-20T07:59:15.504Z,96.50
2019-04-20T08:02:21.396Z,96.00
2019-04-20T08:04:59.443Z,97.50
2019-04-20T08:07:36.073Z,97.00
2019-04-20T08:09:58.488Z,97.00
2019-04-20T08:12:51.633Z,95.90
2019-04-20T08:15:29.744Z,95.70
2019-04-20T08:20:22.115Z,96.30
2019-04-20T08:23:02.979Z,96.10
2019-04-20T08:25:20.265Z,95.60
2019-04-20T08:28:21.523Z,94.00
2019-04-20T08:31:18.188Z,94.20
2019-04-20T08:34:06.424Z,93.20
2019-04-20T08:36:34.562Z,92.90
2019-04-20T08:41:31.589Z,93.10
2019-04-20T08:44:21.658Z,90.90
2019-04-20T08:46:47.711Z,91.00
2019-04-20T08:49:11.354Z,90.80
2019-04-20T08:51:53.774Z,90.00
2019-04-20T08:54:12.007Z,87.70
2019-04-20T08:56:36.073Z,87.10
2019-04-20T08:58:59.622Z,81.20
2019-04-20T09:01:32.706Z,78.00
2019-04-20T09:04:10.450Z,73.20
2019-04-20T09:06:50.742Z,70.10
2019-04-20T09:09:41.873Z,69.70
2019-04-20T09:12:11.971Z,68.90
2019-04-20T09:14:21.615Z,66.90
2019-04-20T09:17:05.908Z,64.50
2019-04-20T09:19:41.735Z,61.90
2019-04-20T09:22:32.942Z,62.50
2019-04-20T09:25:27.888Z,61.90
2019-04-20T09:27:35.063Z,61.00
2019-04-20T09:30:16.063Z,59.30
2019-04-20T09:32:48.593Z,60.10
2019-04-20T09:35:34.095Z,60.50
2019-04-20T09:38:05.152Z,60.40
2019-04-20T09:40:40.453Z,59.30
2019-04-20T09:43:16.967Z,58.50
2019-04-20T09:45:55.517Z,57.20
2019-04-20T09:48:29.773Z,57.20
2019-04-20T09:51:46.693Z,56.00
2019-04-20T09:54:22.809Z,56.10
2019-04-20T09:56:55.260Z,53.20
2019-04-20T09:59:26.908Z,53.80
2019-04-20T10:01:44.588Z,52.60
2019-04-20T10:04:11.040Z,53.40
2019-04-20T10:06:41.772Z,52.60
2019-04-20T10:09:13.373Z,51.90
2019-04-20T10:11:45.871Z,53.10
2019-04-20T10:14:16.502Z,53.00
2019-04-20T10:16:47.429Z,51.00
2019-04-20T10:19:26.018Z,51.50
2019-04-20T10:21:50.732Z,51.80
2019-04-20T10:24:21.364Z,50.00
2019-04-20T10:26:52.495Z,50.40
2019-04-20T10:29:23.715Z,49.30
2019-04-20T10:31:57.031Z,47.80
2019-04-20T10:34:26.504Z,47.10
2019-04-20T10:37:15.861Z,46.10
2019-04-20T10:39:46.794Z,47.50
2019-04-20T10:42:18.371Z,46.00
2019-04-20T10:44:51.619Z,45.40
2019-04-20T10:47:21.214Z,46.30
2019-04-20T10:49:51.632Z,45.60
2019-04-20T10:52:22.026Z,43.80
2019-04-20T10:54:52.433Z,44.40
2019-04-20T10:57:23.720Z,44.20
2019-04-20T10:59:55.411Z,43.60
2019-04-20T11:02:26.147Z,43.90
2019-04-20T11:04:57.001Z,45.40
2019-04-20T11:07:28.352Z,44.50
2019-04-20T11:10:09.135Z,43.90
2019-04-20T11:12:30.898Z,42.50
2019-04-20T11:15:02.808Z,40.70
2019-04-20T11:17:33.473Z,39.40
2019-04-20T11:20:03.861Z,39.10
2019-04-20T11:22:34.750Z,39.90
2019-04-20T11:25:06.146Z,41.10
2019-04-20T11:27:36.791Z,40.60
2019-04-20T11:30:08.066Z,39.80
2019-04-20T11:32:40.095Z,41.80
2019-04-20T11:35:21.323Z,40.40
2019-04-20T11:37:43.057Z,37.70
2019-04-20T11:40:14.919Z,39.80
2019-04-20T11:42:45.715Z,38.50
2019-04-20T11:45:16.196Z,36.90
2019-04-20T11:47:47.355Z,38.00
2019-04-20T11:50:18.063Z,35.00
2019-04-20T11:52:49.914Z,36.60
2019-04-20T11:55:20.542Z,35.10
2019-04-20T11:57:51.341Z,34.80
2019-04-20T12:00:43.177Z,32.00
2019-04-20T12:03:32.501Z,34.20
2019-04-20T12:06:01.063Z,36.50
2019-04-20T12:08:32.170Z,35.90
2019-04-20T12:11:18.856Z,33.90
2019-04-20T12:13:34.513Z,32.30
2019-04-20T12:16:05.797Z,32.30
2019-04-20T12:18:36.139Z,33.60
2019-04-20T12:21:06.527Z,32.10
2019-04-20T12:23:38.159Z,31.90
2019-04-20T12:26:08.966Z,32.70
2019-04-20T12:28:40.094Z,34.00
2019-04-20T12:31:15.366Z,36.10
2019-04-20T12:33:44.225Z,35.30
2019-04-20T12:36:16.362Z,34.70
2019-04-20T12:38:47.257Z,35.00
2019-04-20T12:41:31.136Z,33.40
2019-04-20T12:43:51.936Z,35.60
2019-04-20T12:46:23.454Z,32.60
2019-04-20T12:48:55.688Z,32.00
2019-04-20T12:51:33.781Z,32.70
2019-04-20T12:53:58.441Z,32.10
2019-04-20T12:56:28.880Z,33.10
2019-04-20T12:58:59.851Z,32.00
2019-04-20T13:01:30.632Z,32.30
2019-04-20T13:04:02.950Z,32.50
2019-04-20T13:06:34.128Z,34.10
2019-04-20T13:09:12.568Z,33.80
2019-04-20T13:12:11.911Z,33.00
2019-04-20T13:15:32.564Z,32.60
2019-04-20T13:18:03.290Z,32.40
2019-04-20T13:20:34.127Z,36.10
2019-04-20T13:23:06.215Z,33.50
2019-04-20T13:25:37.039Z,35.60
2019-04-20T13:28:07.554Z,36.40
2019-04-20T13:30:37.947Z,35.00
2019-04-20T13:33:08.408Z,35.50
2019-04-20T13:35:38.839Z,34.20
2019-04-20T13:38:10.002Z,35.40
2019-04-20T13:40:41.784Z,34.60
2019-04-20T13:43:12.318Z,33.60
2019-04-20T13:45:42.787Z,36.30
2019-04-20T13:48:13.138Z,34.20
2019-04-20T13:50:44.262Z,34.90
2019-04-20T13:53:14.974Z,34.60
2019-04-20T13:55:45.724Z,35.30
2019-04-20T13:58:35.933Z,35.50
2019-04-20T14:01:28.737Z,35.60
2019-04-20T14:04:30.674Z,36.00
2019-04-20T14:07:01.960Z,33.40
2019-04-20T14:09:33.229Z,34.20
2019-04-20T14:12:14.158Z,33.70
2019-04-20T14:14:36.994Z,33.60
2019-04-20T14:17:07.769Z,34.10
2019-04-20T14:19:39.019Z,33.00
2019-04-20T14:22:10.311Z,34.00
2019-04-20T14:24:41.123Z,34.20
2019-04-20T14:27:12.858Z,37.30
2019-04-20T14:29:43.476Z,37.50
2019-04-20T14:32:14.751Z,37.50
2019-04-20T14:34:47.064Z,37.10
2019-04-20T14:37:17.592Z,37.80
2019-04-20T14:39:48.099Z,37.70
2019-04-20T14:42:30.166Z,36.30
2019-04-20T14:44:51.982Z,36.80
2019-04-20T14:47:23.627Z,38.60
2019-04-20T14:49:55.167Z,38.30
2019-04-20T14:52:26.277Z,38.20
2019-04-20T14:54:57.586Z,41.30
2019-04-20T14:57:28.077Z,43.80
2019-04-20T15:00:03.681Z,41.50
2019-04-20T15:02:34.312Z,37.90
2019-04-20T15:05:05.433Z,36.40
2019-04-20T15:07:36.515Z,40.10
2019-04-20T15:10:07.155Z,41.60
2019-04-20T15:12:48.326Z,41.00
2019-04-20T15:15:10.592Z,41.60
2019-04-20T15:17:47.838Z,42.60
2019-04-20T15:20:33.550Z,42.60
2019-04-20T15:23:11.713Z,39.60
2019-04-20T15:25:42.601Z,40.40
2019-04-20T15:28:14.443Z,42.30
2019-04-20T15:30:45.324Z,40.00
2019-04-20T15:33:16.986Z,40.80
2019-04-20T15:35:48.299Z,42.70
2019-04-20T15:38:18.755Z,42.60
2019-04-20T15:40:49.220Z,41.80
2019-04-20T15:43:24.038Z,42.80
2019-04-20T15:45:51.740Z,41.60
2019-04-20T15:48:22.100Z,42.40
2019-04-20T15:50:53.768Z,43.80
2019-04-20T15:53:25.605Z,42.50
2019-04-20T15:55:57.568Z,43.50
2019-04-20T15:58:28.295Z,44.50
2019-04-20T16:01:00.514Z,44.40
2019-04-20T16:03:37.226Z,45.00
2019-04-20T16:06:09.436Z,45.50
2019-04-20T16:08:42.179Z,46.00
2019-04-20T16:11:13.394Z,45.50
2019-04-20T16:13:49.439Z,45.30
2019-04-20T16:16:16.321Z,44.60
2019-04-20T16:18:46.930Z,45.80
2019-04-20T16:21:22.488Z,44.90
2019-04-20T16:23:59.202Z,46.30
2019-04-20T16:26:57.830Z,47.20
2019-04-20T16:29:29.382Z,45.90
2019-04-20T16:32:00.490Z,46.80
2019-04-20T16:34:31.726Z,46.60
2019-04-20T16:37:02.476Z,44.80
2019-04-20T16:39:32.836Z,46.20
2019-04-20T16:42:04.472Z,45.80
2019-04-20T16:44:35.558Z,44.50
2019-04-20T16:47:06.178Z,44.50
2019-04-20T16:49:37.067Z,46.00
2019-04-20T16:52:07.693Z,44.20
2019-04-20T16:54:38.188Z,44.60
2019-04-20T16:57:11.404Z,44.20
2019-04-20T16:59:47.085Z,45.20
2019-04-20T17:02:15.707Z,44.10
2019-04-20T17:04:45.106Z,44.20
2019-04-20T17:07:26.839Z,44.10
2019-04-20T17:09:57.998Z,44.80
2019-04-20T17:12:28.405Z,44.80
2019-04-20T17:14:58.790Z,44.90
2019-04-20T17:17:29.470Z,45.10
2019-04-20T17:20:00.065Z,45.00
2019-04-20T17:22:31.459Z,45.40
2019-04-20T17:25:02.194Z,46.20
2019-04-20T17:28:11.021Z,46.20
2019-04-20T17:30:56.809Z,47.00
2019-04-20T17:34:01.514Z,47.60
2019-04-20T17:36:27.802Z,48.00
2019-04-20T17:39:00.587Z,49.00
2019-04-20T17:41:48.951Z,49.30
2019-04-20T17:44:20.973Z,48.80
2019-04-20T17:46:44.922Z,49.20
2019-04-20T17:49:19.469Z,48.90
2019-04-20T17:51:58.085Z,49.50
2019-04-20T17:54:29.361Z,49.90
2019-04-20T17:57:00.476Z,50.60
2019-04-20T17:59:32.312Z,50.90
2019-04-20T18:02:23.728Z,51.00
2019-04-20T18:05:34.130Z,51.20
2019-04-20T18:07:52.257Z,51.80
2019-04-20T18:10:22.557Z,51.80
2019-04-20T18:12:42.939Z,52.20
2019-04-20T18:15:29.532Z,52.50
2019-04-20T18:18:25.624Z,52.50
2019-04-20T18:20:56.895Z,53.20
2019-04-20T18:23:34.396Z,53.30
2019-04-20T18:26:25.587Z,53.70
2019-04-20T18:28:56.083Z,53.80
2019-04-20T18:31:29.203Z,54.40
2019-04-20T18:34:11.287Z,54.60
2019-04-20T18:36:41.310Z,54.70
2019-04-20T18:39:13.220Z,54.90
2019-04-20T18:41:48.064Z,55.00
2019-04-20T18:44:14.841Z,55.30
2019-04-20T18:47:07.006Z,55.30
2019-04-20T18:49:31.913Z,55.90
2019-04-20T18:51:49.762Z,56.10
2019-04-20T18:54:24.257Z,56.70
2019-04-20T18:56:53.384Z,56.70
2019-04-20T18:59:35.219Z,56.80
2019-04-20T19:01:57.134Z,57.10
2019-04-20T19:04:28.070Z,57.40
2019-04-20T19:06:59.570Z,57.60
2019-04-20T19:09:32.278Z,57.80
2019-04-20T19:12:06.053Z,57.90
2019-04-20T19:15:03.433Z,58.20
2019-04-20T19:18:03.888Z,58.20
2019-04-20T19:20:36.993Z,58.40
2019-04-20T19:23:08.379Z,58.70
2019-04-20T19:25:42.313Z,59.40
2019-04-20T19:28:14.569Z,59.40
2019-04-20T19:30:50.204Z,59.40
2019-04-20T19:33:31.030Z,59.30
2019-04-20T19:35:56.302Z,59.50
2019-04-20T19:38:25.800Z,59.50
2019-04-20T19:41:02.068Z,59.80
2019-04-20T19:43:31.637Z,60.10
2019-04-20T19:46:35.341Z,60.20
2019-04-20T19:48:40.651Z,60.30
2019-04-20T19:51:24.160Z,60.00
2019-04-20T19:53:55.068Z,60.40
2019-04-20T19:56:22.349Z,60.60
2019-04-20T19:58:52.889Z,60.60
2019-04-20T20:01:09.468Z,60.90
2019-04-20T20:03:39.847Z,61.00
2019-04-20T20:06:18.476Z,61.20
2019-04-20T20:08:50.320Z,61.50
2019-04-20T20:11:20.929Z,61.30
2019-04-20T20:13:51.777Z,61.70
2019-04-20T20:16:30.438Z,62.10
2019-04-20T20:19:03.894Z,62.40
2019-04-20T20:21:35.990Z,62.90
2019-04-20T20:23:56.430Z,63.30
2019-04-20T20:26:33.534Z,64.50
2019-04-20T20:29:08.223Z,64.10
2019-04-20T20:31:48.592Z,64.30
2019-04-20T20:34:14.571Z,64.90
2019-04-20T20:36:43.714Z,65.20
2019-04-20T20:39:16.675Z,65.70
2019-04-20T20:41:53.100Z,66.20
2019-04-20T20:44:27.652Z,66.40
2019-04-20T20:47:10.605Z,66.70
2019-04-20T20:49:40.233Z,67.10
2019-04-20T20:52:14.558Z,67.40
2019-04-20T20:54:33.660Z,67.90
2019-04-20T20:57:04.897Z,68.30
2019-04-20T20:59:41.629Z,68.70
2019-04-20T21:02:06.844Z,69.10
2019-04-20T21:04:31.583Z,69.40
2019-04-20T21:07:02.757Z,69.60
2019-04-20T21:09:33.500Z,70.30
2019-04-20T21:12:09.136Z,70.70
2019-04-20T21:14:40.196Z,71.20
2019-04-20T21:17:16.052Z,71.70
2019-04-20T21:19:57.951Z,72.10
2019-04-20T21:22:20.256Z,72.70
2019-04-20T21:24:51.245Z,73.50
2019-04-20T21:27:23.785Z,74.20
2019-04-20T21:29:57.847Z,75.00
2019-04-20T21:32:26.292Z,75.80
2019-04-20T21:35:01.316Z,76.50
2019-04-20T21:37:29.097Z,77.50
2019-04-20T21:40:03.442Z,77.90
2019-04-20T21:42:39.627Z,78.20
2019-04-20T21:45:10.274Z,78.80
2019-04-20T21:47:39.223Z,78.70
2019-04-20T21:50:24.089Z,78.90
2019-04-20T21:52:46.781Z,79.20
2019-04-20T21:55:15.974Z,79.50
2019-04-20T21:57:51.574Z,79.70
2019-04-20T22:00:42.271Z,80.40
2019-04-20T22:03:11.863Z,81.50
2019-04-20T22:05:42.310Z,81.00
2019-04-20T22:08:16.051Z,81.50
2019-04-20T22:10:45.241Z,81.70
2019-04-20T22:13:19.364Z,81.70
2019-04-20T22:15:56.001Z,82.00
2019-04-20T22:18:23.096Z,82.30
2019-04-20T22:21:04.686Z,82.50
2019-04-20T22:23:46.406Z,83.80
2019-04-20T22:26:10.344Z,83.30
2019-04-20T22:28:29.727Z,84.10
2019-04-20T22:31:00.337Z,83.80
2019-04-20T22:33:37.099Z,83.80
2019-04-20T22:36:09.466Z,83.90
2019-04-20T22:39:05.314Z,83.90
2019-04-20T22:41:47.937Z,84.10
2019-04-20T22:44:19.337Z,84.10
2019-04-20T22:46:47.482Z,84.20
2019-04-20T22:49:38.857Z,84.50
2019-04-20T22:51:58.870Z,84.80
2019-04-20T22:54:37.978Z,85.10
2019-04-20T22:57:03.402Z,85.10
2019-04-20T22:59:38.318Z,85.20
2019-04-20T23:02:01.178Z,85.00
2019-04-20T23:04:31.032Z,84.90
2019-04-20T23:07:02.992Z,84.70
2019-04-20T23:09:43.768Z,84.70
2019-04-20T23:12:11.281Z,84.90
2019-04-20T23:14:38.373Z,85.20
2019-04-20T23:17:10.291Z,86.00
2019-04-20T23:19:48.623Z,86.70
2019-04-20T23:22:14.289Z,87.50
2019-04-20T23:24:45.298Z,88.00
2019-04-20T23:27:21.971Z,88.10
2019-04-20T23:29:49.094Z,88.20
2019-04-20T23:32:21.306Z,88.00
2019-04-20T23:34:57.672Z,88.40
2019-04-20T23:37:29.879Z,89.20
2019-04-20T23:39:57.910Z,89.30
2019-04-20T23:42:45.961Z,89.60
2019-04-20T23:45:39.475Z,90.00
2019-04-20T23:48:14.262Z,90.40
2019-04-20T23:51:01.155Z,90.70
2019-04-20T23:53:32.892Z,90.90
2019-04-20T23:55:49.887Z,91.00
2019-04-20T23:58:21.158Z,91.10
